createdAt,value
2018-03-07T00:01:29.533Z,32.14
2018-03-07T00:03:57.829Z,32.15
2018-03-07T00:06:26.159Z,32.17
2018-03-07T00:08:54.438Z,32.17
2018-03-07T00:11:22.703Z,32.18
2018-03-07T00:13:51.006Z,32.19
2018-03-07T00:16:19.302Z,32.22
2018-03-07T00:18:47.594Z,32.23
2018-03-07T00:21:15.885Z,32.25
2018-03-07T00:23:44.165Z,32.26
2018-03-07T00:26:12.464Z,32.22
2018-03-07T00:28:40.767Z,32.29
2018-03-07T00:31:09.055Z,32.30
2018-03-07T00:33:37.344Z,32.31
2018-03-07T00:36:05.688Z,32.32
2018-03-07T00:38:33.975Z,32.33
2018-03-07T00:41:02.258Z,32.34
2018-03-07T00:43:30.537Z,32.37
2018-03-07T00:45:58.872Z,32.36
2018-03-07T00:48:27.294Z,32.37
2018-03-07T00:50:55.587Z,32.37
2018-03-07T00:53:23.869Z,32.38
2018-03-07T00:55:52.190Z,32.37
2018-03-07T00:58:20.470Z,32.39
2018-03-07T01:00:48.762Z,32.38
2018-03-07T01:03:17.060Z,32.39
2018-03-07T01:05:45.342Z,32.39
2018-03-07T01:08:13.645Z,32.39
2018-03-07T01:10:41.944Z,32.39
2018-03-07T01:13:10.265Z,32.39
2018-03-07T01:15:38.578Z,32.40
2018-03-07T01:18:06.885Z,32.39
2018-03-07T01:20:35.173Z,32.40
2018-03-07T01:23:03.449Z,32.41
2018-03-07T01:25:31.731Z,32.40
2018-03-07T01:28:00.060Z,32.41
2018-03-07T01:30:28.345Z,32.43
2018-03-07T01:32:56.631Z,32.43
2018-03-07T01:35:24.931Z,32.45
2018-03-07T01:37:53.237Z,32.44
2018-03-07T01:40:21.515Z,32.43
2018-03-07T01:42:49.799Z,32.44
2018-03-07T01:45:18.120Z,32.44
2018-03-07T01:47:46.417Z,32.43
2018-03-07T01:50:14.734Z,32.43
2018-03-07T01:52:43.023Z,32.43
2018-03-07T01:55:11.319Z,32.44
2018-03-07T01:57:39.597Z,32.45
2018-03-07T02:00:07.896Z,32.43
2018-03-07T02:02:36.200Z,32.43
2018-03-07T02:05:04.483Z,32.43
2018-03-07T02:07:32.779Z,32.45
2018-03-07T02:10:01.060Z,32.46
2018-03-07T02:12:29.373Z,32.48
2018-03-07T02:14:57.654Z,32.50
2018-03-07T02:17:25.964Z,32.50
2018-03-07T02:19:54.251Z,32.51
2018-03-07T02:22:22.541Z,32.51
2018-03-07T02:24:50.820Z,32.51
2018-03-07T02:27:19.117Z,32.47
2018-03-07T02:29:47.394Z,32.51
2018-03-07T02:32:15.679Z,32.51
2018-03-07T02:34:43.976Z,32.51
2018-03-07T02:37:12.270Z,32.51
2018-03-07T02:39:40.546Z,32.52
2018-03-07T02:42:08.887Z,32.53
2018-03-07T02:44:37.153Z,32.56
2018-03-07T02:47:05.445Z,32.55
2018-03-07T02:49:33.729Z,32.56
2018-03-07T02:52:02.025Z,32.54
2018-03-07T02:54:30.310Z,32.53
2018-03-07T02:56:58.781Z,32.52
2018-03-07T02:59:27.073Z,32.52
2018-03-07T03:01:55.358Z,32.52
2018-03-07T03:04:23.641Z,32.52
2018-03-07T03:06:51.956Z,32.51
2018-03-07T03:09:20.263Z,32.50
2018-03-07T03:11:48.597Z,32.50
2018-03-07T03:14:16.883Z,32.47
2018-03-07T03:16:45.181Z,32.47
2018-03-07T03:19:13.493Z,32.50
2018-03-07T03:21:41.776Z,32.46
2018-03-07T03:24:10.053Z,32.45
2018-03-07T03:26:38.338Z,31.28
2018-03-07T03:29:06.625Z,30.88
2018-03-07T03:31:34.900Z,31.04
2018-03-07T03:34:03.196Z,31.32
2018-03-07T03:36:31.504Z,31.50
2018-03-07T03:38:59.771Z,31.64
2018-03-07T03:41:28.080Z,31.74
2018-03-07T03:43:56.428Z,31.79
2018-03-07T03:46:24.711Z,31.83
2018-03-07T03:48:52.995Z,31.85
2018-03-07T03:51:21.278Z,31.87
2018-03-07T03:53:49.549Z,31.89
2018-03-07T03:56:17.859Z,31.91
2018-03-07T03:58:46.150Z,31.93
2018-03-07T04:01:14.463Z,32.00
2018-03-07T04:03:42.756Z,32.07
2018-03-07T04:06:11.082Z,32.14
2018-03-07T04:08:39.379Z,32.21
2018-03-07T04:11:07.685Z,32.32
2018-03-07T04:13:36.015Z,32.75
2018-03-07T04:16:04.301Z,32.71
2018-03-07T04:18:32.650Z,33.18
2018-03-07T04:21:01.224Z,33.98
2018-03-07T04:23:29.514Z,34.87
2018-03-07T04:25:57.825Z,35.58
2018-03-07T04:28:26.122Z,36.36
2018-03-07T04:30:54.412Z,37.14
2018-03-07T04:33:22.689Z,37.83
2018-03-07T04:35:50.981Z,38.29
2018-03-07T04:38:19.337Z,38.53
2018-03-07T04:40:47.621Z,38.84
2018-03-07T04:43:15.898Z,39.12
2018-03-07T04:45:44.197Z,39.33
2018-03-07T04:48:12.510Z,39.61
2018-03-07T04:50:40.794Z,39.64
2018-03-07T04:53:09.093Z,39.61
2018-03-07T04:55:37.381Z,39.62
2018-03-07T04:58:05.741Z,39.61
2018-03-07T05:00:34.145Z,39.59
2018-03-07T05:03:02.555Z,39.50
2018-03-07T05:05:30.845Z,39.45
2018-03-07T05:07:59.145Z,39.35
2018-03-07T05:10:27.450Z,39.25
2018-03-07T05:12:55.746Z,39.18
2018-03-07T19:55:25.136Z,30.94
2018-03-07T19:57:53.426Z,30.96
2018-03-07T20:00:21.897Z,31.08
2018-03-07T20:02:50.268Z,31.17
2018-03-07T20:05:18.894Z,31.27
2018-03-07T20:07:47.188Z,31.35
2018-03-07T20:10:15.493Z,31.43
2018-03-07T20:12:44.898Z,31.48
2018-03-07T20:15:13.270Z,31.54
2018-03-07T20:17:41.473Z,31.56
2018-03-07T20:20:09.915Z,31.56
2018-03-07T20:22:38.212Z,31.58
2018-03-07T20:25:06.728Z,31.56
2018-03-07T20:27:35.437Z,31.56
2018-03-07T20:30:03.751Z,31.56
2018-03-07T20:32:32.396Z,31.56
2018-03-07T20:35:01.158Z,31.58
2018-03-07T20:37:42.156Z,31.61
2018-03-07T20:40:10.442Z,31.63
2018-03-07T20:42:38.816Z,31.62
2018-03-07T20:45:07.255Z,31.64
2018-03-07T20:47:35.533Z,31.63
2018-03-07T20:50:03.837Z,31.63
2018-03-07T20:52:32.174Z,31.64
2018-03-07T20:55:00.467Z,31.65
2018-03-07T20:57:28.943Z,31.65
2018-03-07T20:59:57.251Z,31.66
2018-03-07T21:02:25.565Z,31.68
2018-03-07T21:04:53.868Z,31.72
2018-03-07T21:07:22.156Z,31.71
2018-03-07T21:09:50.446Z,31.70
2018-03-07T21:12:18.767Z,31.70
2018-03-07T21:14:47.077Z,31.71
2018-03-07T21:17:15.357Z,31.73
2018-03-07T21:19:43.706Z,31.71
2018-03-07T21:22:12.025Z,31.74
2018-03-07T21:24:40.516Z,31.73
2018-03-07T21:27:08.813Z,31.77
2018-03-07T21:29:37.093Z,31.75
2018-03-07T21:32:05.372Z,31.75
2018-03-07T21:34:33.676Z,31.76
2018-03-07T21:37:02.023Z,31.75
2018-03-07T21:39:30.396Z,31.76
2018-03-07T21:41:58.682Z,31.76
2018-03-07T21:44:26.986Z,31.76
2018-03-07T21:46:55.286Z,31.76
2018-03-07T21:49:23.592Z,31.77
2018-03-07T21:51:51.873Z,31.77
2018-03-07T21:54:19.924Z,31.77
2018-03-07T21:56:48.232Z,31.78
2018-03-07T21:59:16.526Z,31.79
2018-03-07T22:01:44.809Z,31.80
2018-03-07T22:04:13.091Z,31.80
2018-03-07T22:06:41.449Z,31.80
2018-03-07T22:09:09.733Z,31.80
2018-03-07T22:11:38.030Z,31.81
2018-03-07T22:14:06.315Z,31.83
2018-03-07T22:16:34.658Z,31.83
2018-03-07T22:19:02.946Z,31.83
2018-03-07T22:21:31.233Z,31.85
2018-03-07T22:23:59.520Z,31.85
2018-03-07T22:26:27.817Z,31.86
2018-03-07T22:28:56.104Z,31.86
2018-03-07T22:31:24.445Z,31.87
2018-03-07T22:33:52.748Z,31.87
2018-03-07T22:36:21.050Z,31.86
2018-03-07T22:38:49.361Z,31.88
2018-03-07T22:41:17.668Z,31.88
2018-03-07T22:43:45.969Z,31.88
2018-03-07T22:46:14.274Z,31.88
2018-03-07T22:48:42.578Z,31.88
2018-03-07T22:51:10.877Z,31.91
2018-03-07T22:53:39.190Z,31.90
2018-03-07T22:56:07.544Z,31.91
2018-03-07T22:58:35.820Z,31.92
2018-03-07T23:01:04.116Z,31.92
2018-03-07T23:03:32.419Z,31.93
2018-03-07T23:06:01.677Z,31.93
2018-03-07T23:08:29.971Z,31.93
2018-03-07T23:10:58.288Z,31.94
2018-03-07T23:13:26.768Z,31.95
2018-03-07T23:15:55.057Z,31.96
2018-03-07T23:18:23.330Z,31.98
2018-03-07T23:20:51.614Z,31.98
2018-03-07T23:23:19.902Z,31.96
2018-03-07T23:25:48.194Z,31.98
2018-03-07T23:28:16.475Z,31.98
2018-03-07T23:30:44.752Z,31.98
2018-03-07T23:33:13.046Z,31.98
2018-03-07T23:35:41.353Z,31.99
2018-03-07T23:38:09.710Z,31.98
2018-03-07T23:40:38.002Z,31.99
2018-03-07T23:43:06.292Z,31.98
2018-03-07T23:45:34.763Z,31.99
2018-03-07T23:48:03.054Z,31.97
2018-03-07T23:50:31.365Z,31.99
2018-03-07T23:52:59.855Z,31.99
2018-03-07T23:55:28.182Z,31.99
2018-03-07T23:57:56.483Z,32.00
